createdAt,value
2023-04-15T00:00:26.222Z,1.57
2023-04-15T00:03:28.697Z,1.59
2023-04-15T00:06:31.086Z,1.59
2023-04-15T00:09:32.663Z,1.46
2023-04-15T00:12:34.225Z,1.41
2023-04-15T00:15:35.790Z,1.31
2023-04-15T00:18:37.693Z,1.30
2023-04-15T00:21:39.204Z,1.42
2023-04-15T00:24:40.837Z,1.46
2023-04-15T00:27:42.346Z,1.38
2023-04-15T00:30:44.167Z,1.29
2023-04-15T00:33:45.866Z,1.23
2023-04-15T00:36:47.772Z,1.21
2023-04-15T00:39:49.371Z,1.21
2023-04-15T00:42:51.341Z,1.28
2023-04-15T00:45:53.664Z,1.15
2023-04-15T00:48:55.348Z,1.09
2023-04-15T00:51:57.088Z,1.10
2023-04-15T00:54:58.974Z,1.07
2023-04-15T00:58:00.527Z,1.16
2023-04-15T01:01:02.249Z,1.07
2023-04-15T01:04:04.212Z,1.10
2023-04-15T01:07:05.809Z,1.11
2023-04-15T01:10:08.208Z,1.14
2023-04-15T01:13:10.090Z,1.04
2023-04-15T01:16:11.676Z,0.96
2023-04-15T01:19:13.559Z,0.87
2023-04-15T01:22:15.208Z,0.96
2023-04-15T01:25:20.264Z,0.95
2023-04-15T01:28:21.934Z,0.97
2023-04-15T01:31:23.510Z,0.91
2023-04-15T01:34:25.069Z,0.81
2023-04-15T01:37:26.570Z,0.77
2023-04-15T01:40:28.068Z,0.84
2023-04-15T01:43:29.734Z,0.86
2023-04-15T01:46:31.349Z,0.70
2023-04-15T01:49:32.959Z,0.81
2023-04-15T01:52:34.509Z,0.75
2023-04-15T01:55:36.255Z,0.82
2023-04-15T01:58:37.792Z,0.74
2023-04-15T02:01:39.700Z,0.76
2023-04-15T02:04:41.301Z,0.75
2023-04-15T02:07:43.488Z,0.65
2023-04-15T02:10:44.993Z,0.69
2023-04-15T02:13:46.796Z,0.66
2023-04-15T02:16:48.437Z,0.61
2023-04-15T02:19:50.305Z,0.56
2023-04-15T02:22:52.224Z,0.54
2023-04-15T02:25:54.380Z,0.45
2023-04-15T02:28:56.236Z,0.42
2023-04-15T02:31:57.821Z,0.39
2023-04-15T02:35:06.585Z,0.35
2023-04-15T02:38:08.202Z,0.35
2023-04-15T02:41:10.493Z,0.35
2023-04-15T02:44:13.074Z,0.32
2023-04-15T02:47:15.969Z,0.37
2023-04-15T02:50:17.475Z,0.41
2023-04-15T02:53:19.970Z,0.40
2023-04-15T02:56:23.259Z,0.37
2023-04-15T02:59:24.966Z,0.42
2023-04-15T03:02:26.672Z,0.47
2023-04-15T03:05:28.345Z,0.50
2023-04-15T03:08:29.973Z,0.50
2023-04-15T03:11:31.667Z,0.53
2023-04-15T03:14:33.274Z,0.46
2023-04-15T03:17:34.797Z,0.55
2023-04-15T03:20:36.788Z,0.59
2023-04-15T03:23:38.738Z,0.59
2023-04-15T03:26:40.429Z,0.50
2023-04-15T03:29:41.979Z,0.59
2023-04-15T03:32:43.568Z,0.63
2023-04-15T03:35:45.419Z,0.61
2023-04-15T03:38:46.938Z,0.56
2023-04-15T03:41:48.557Z,0.52
2023-04-15T03:44:50.201Z,0.54
2023-04-15T03:47:52.128Z,0.50
2023-04-15T03:50:53.704Z,0.58
2023-04-15T03:53:55.275Z,0.60
2023-04-15T03:56:56.852Z,0.63
2023-04-15T03:59:58.421Z,0.62
2023-04-15T04:03:00.190Z,0.57
2023-04-15T04:06:01.892Z,0.53
2023-04-15T04:09:03.640Z,0.45
2023-04-15T04:12:09.008Z,0.53
2023-04-15T04:15:11.548Z,0.54
2023-04-15T04:18:13.462Z,0.56
2023-04-15T04:21:15.002Z,0.66
2023-04-15T04:24:16.786Z,0.66
2023-04-15T04:27:18.290Z,0.70
2023-04-15T04:30:19.853Z,0.73
2023-04-15T04:33:21.447Z,0.81
2023-04-15T04:36:22.986Z,0.77
2023-04-15T04:39:24.537Z,0.88
2023-04-15T04:42:26.069Z,0.78
2023-04-15T04:45:27.615Z,0.82
2023-04-15T04:48:29.110Z,0.84
2023-04-15T04:51:31.184Z,0.87
2023-04-15T04:54:32.938Z,0.95
2023-04-15T04:57:39.452Z,1.06
2023-04-15T05:00:40.973Z,1.04
2023-04-15T05:03:42.609Z,1.10
2023-04-15T05:06:44.365Z,1.14
2023-04-15T05:09:46.045Z,1.21
2023-04-15T05:12:47.613Z,1.33
2023-04-15T05:15:49.158Z,1.45
2023-04-15T05:18:50.700Z,1.44
2023-04-15T05:21:52.254Z,1.34
2023-04-15T05:24:53.827Z,1.40
2023-04-15T05:27:55.478Z,1.48
2023-04-15T05:30:57.078Z,1.59
2023-04-15T05:33:58.651Z,1.86
2023-04-15T05:37:00.643Z,1.99
2023-04-15T05:40:02.184Z,2.11
2023-04-15T05:43:03.793Z,2.24
2023-04-15T05:46:05.393Z,2.28
2023-04-15T05:49:07.185Z,2.39
2023-04-15T05:52:08.687Z,2.44
2023-04-15T05:55:10.218Z,2.28
2023-04-15T05:58:12.581Z,2.42
2023-04-15T06:01:14.105Z,2.65
2023-04-15T06:04:15.879Z,2.85
2023-04-15T06:07:17.473Z,3.08
2023-04-15T06:10:19.136Z,2.98
2023-04-15T06:13:20.738Z,3.00
2023-04-15T06:16:23.290Z,3.07
2023-04-15T06:19:24.726Z,3.13
2023-04-15T06:22:26.261Z,3.50
2023-04-15T06:25:28.107Z,3.72
2023-04-15T06:28:29.882Z,3.97
2023-04-15T06:31:31.553Z,4.04
2023-04-15T06:34:33.171Z,3.97
2023-04-15T06:37:34.676Z,4.08
2023-04-15T06:40:38.977Z,4.41
2023-04-15T06:43:40.618Z,4.34
2023-04-15T06:46:42.162Z,4.55
2023-04-15T06:49:43.919Z,4.89
2023-04-15T06:52:45.586Z,5.04
2023-04-15T06:55:47.183Z,5.22
2023-04-15T06:58:48.797Z,5.39
2023-04-15T07:01:50.584Z,5.51
2023-04-15T07:04:52.182Z,5.73
2023-04-15T07:07:53.710Z,5.61
2023-04-15T07:10:55.233Z,5.63
2023-04-15T07:13:58.138Z,5.67
2023-04-15T07:16:59.682Z,5.78
2023-04-15T07:20:01.283Z,6.08
2023-04-15T07:23:02.832Z,6.21
2023-04-15T07:26:04.515Z,6.44
2023-04-15T07:29:06.114Z,6.40
2023-04-15T07:32:07.807Z,6.70
2023-04-15T07:35:09.865Z,6.81
2023-04-15T07:38:13.630Z,6.84
2023-04-15T07:41:15.905Z,7.03
2023-04-15T07:44:17.482Z,7.18
2023-04-15T07:47:19.074Z,7.36
2023-04-15T07:50:20.658Z,7.77
2023-04-15T07:53:22.269Z,8.06
2023-04-15T07:56:23.791Z,8.26
2023-04-15T07:59:25.645Z,8.55
2023-04-15T08:02:27.353Z,8.80
2023-04-15T08:05:29.016Z,9.02
2023-04-15T08:08:31.164Z,9.26
2023-04-15T08:11:33.005Z,9.82
2023-04-15T08:14:35.228Z,10.99
2023-04-15T08:17:36.870Z,11.64
2023-04-15T08:20:38.568Z,12.26
2023-04-15T08:23:40.162Z,12.97
2023-04-15T08:26:42.153Z,12.85
2023-04-15T08:29:43.950Z,13.21
2023-04-15T08:32:50.369Z,12.49
2023-04-15T08:35:52.189Z,12.14
2023-04-15T08:38:53.792Z,12.90
2023-04-15T08:41:59.652Z,11.76
2023-04-15T08:45:01.970Z,11.04
2023-04-15T08:48:03.691Z,10.49
2023-04-15T08:51:05.320Z,10.75
2023-04-15T08:54:08.518Z,10.78
2023-04-15T08:57:10.052Z,10.49
2023-04-15T09:00:12.541Z,10.30
2023-04-15T09:03:14.201Z,10.03
2023-04-15T09:06:17.444Z,10.15
2023-04-15T09:09:19.087Z,9.93
2023-04-15T09:12:20.612Z,9.82
2023-04-15T09:15:23.734Z,9.96
2023-04-15T09:18:35.629Z,10.15
2023-04-15T09:21:37.199Z,10.32
2023-04-15T09:24:39.708Z,10.54
2023-04-15T09:27:51.078Z,11.24
2023-04-15T09:30:58.031Z,11.49
2023-04-15T09:33:59.848Z,11.95
2023-04-15T09:37:01.606Z,12.22
2023-04-15T09:40:03.985Z,12.34
2023-04-15T09:43:06.232Z,12.98
2023-04-15T09:46:07.799Z,13.77
2023-04-15T09:49:10.351Z,12.14
2023-04-15T09:52:13.967Z,12.98
2023-04-15T09:55:17.109Z,13.31
2023-04-15T09:58:23.385Z,12.90
2023-04-15T10:01:25.292Z,13.47
2023-04-15T10:04:28.406Z,13.02
2023-04-15T10:07:30.774Z,13.53
2023-04-15T10:10:33.369Z,13.46
2023-04-15T10:13:37.186Z,13.09
2023-04-15T10:16:39.650Z,12.20
2023-04-15T10:19:41.372Z,11.87
2023-04-15T10:22:42.940Z,12.09
2023-04-15T10:25:46.185Z,13.11
2023-04-15T10:28:48.647Z,13.39
2023-04-15T10:31:51.028Z,13.72
2023-04-15T10:34:54.459Z,13.38
2023-04-15T10:37:56.308Z,13.98
2023-04-15T10:41:13.282Z,13.70
2023-04-15T10:44:14.902Z,12.88
2023-04-15T10:47:20.434Z,13.76
2023-04-15T10:50:22.399Z,12.87
2023-04-15T10:53:28.523Z,13.13
2023-04-15T10:56:30.904Z,12.30
2023-04-15T10:59:36.802Z,12.45
2023-04-15T11:02:45.131Z,13.90
2023-04-15T11:05:52.719Z,13.85
2023-04-15T11:08:59.424Z,14.10
2023-04-15T11:12:13.044Z,13.62
2023-04-15T11:15:33.845Z,12.79
2023-04-15T11:19:03.305Z,12.96
2023-04-15T11:22:17.319Z,13.36
2023-04-15T11:25:25.967Z,13.42
2023-04-15T11:28:31.733Z,13.93
2023-04-15T11:31:33.330Z,14.22
2023-04-15T11:34:36.295Z,14.14
2023-04-15T11:37:38.043Z,13.26
2023-04-15T11:40:40.308Z,13.34
2023-04-15T11:43:42.318Z,13.13
2023-04-15T11:46:45.514Z,12.96
2023-04-15T11:49:47.251Z,14.14
2023-04-15T11:52:58.627Z,13.74
2023-04-15T11:56:00.984Z,14.10
2023-04-15T11:59:03.006Z,14.54
2023-04-15T12:02:11.484Z,14.42
2023-04-15T12:05:16.413Z,14.44
2023-04-15T12:08:19.050Z,14.70
2023-04-15T12:11:27.057Z,14.40
2023-04-15T12:14:29.874Z,13.93
2023-04-15T12:17:31.621Z,14.01
2023-04-15T12:20:54.659Z,14.43
2023-04-15T12:23:56.974Z,14.25
2023-04-15T12:27:01.770Z,14.54
2023-04-15T12:30:08.089Z,14.21
2023-04-15T12:33:10.458Z,14.17
2023-04-15T12:36:11.973Z,13.11
2023-04-15T12:39:13.525Z,13.38
2023-04-15T12:42:15.675Z,13.50
2023-04-15T12:45:17.059Z,13.55
2023-04-15T12:48:18.594Z,13.82
2023-04-15T12:51:21.732Z,13.48
2023-04-15T12:54:23.500Z,13.73
2023-04-15T12:57:25.182Z,14.33
2023-04-15T13:00:26.696Z,14.38
2023-04-15T13:03:28.432Z,14.43
2023-04-15T13:06:30.610Z,14.59
2023-04-15T13:09:32.436Z,14.20
2023-04-15T13:12:36.711Z,13.78
2023-04-15T13:15:38.373Z,13.84
2023-04-15T13:18:40.038Z,15.14
2023-04-15T13:21:41.681Z,15.13
2023-04-15T13:24:43.228Z,14.80
2023-04-15T13:27:44.791Z,14.29
2023-04-15T13:30:47.059Z,14.10
2023-04-15T13:33:48.721Z,14.32
2023-04-15T13:36:50.530Z,14.51
2023-04-15T13:39:52.164Z,14.99
2023-04-15T13:42:53.934Z,15.12
2023-04-15T13:45:55.561Z,15.05
2023-04-15T13:48:59.483Z,14.75
2023-04-15T13:52:00.950Z,14.69
2023-04-15T13:55:07.294Z,14.61
2023-04-15T13:58:21.457Z,14.13
2023-04-15T14:01:23.028Z,14.11
2023-04-15T14:04:24.820Z,13.91
2023-04-15T14:07:26.435Z,13.71
2023-04-15T14:10:28.020Z,13.50
2023-04-15T14:13:29.751Z,13.82
2023-04-15T14:16:33.460Z,14.33
2023-04-15T14:19:35.229Z,14.03
2023-04-15T14:22:36.974Z,13.79
2023-04-15T14:25:39.455Z,13.83
2023-04-15T14:28:41.090Z,13.53
2023-04-15T14:31:44.797Z,13.17
2023-04-15T14:35:06.688Z,13.15
2023-04-15T14:38:10.773Z,13.10
2023-04-15T14:41:12.525Z,13.40
2023-04-15T14:44:14.109Z,13.36
2023-04-15T14:47:16.164Z,13.06
2023-04-15T14:50:17.742Z,13.30
2023-04-15T14:53:19.281Z,12.94
2023-04-15T14:56:20.837Z,13.03
2023-04-15T14:59:22.362Z,12.94
2023-04-15T15:02:37.469Z,12.87
2023-04-15T15:05:41.423Z,13.06
2023-04-15T15:08:43.114Z,13.11
2023-04-15T15:11:44.640Z,13.16
2023-04-15T15:14:46.226Z,12.78
2023-04-15T15:17:47.958Z,13.16
2023-04-15T15:20:49.536Z,13.08
2023-04-15T15:23:54.107Z,12.69
2023-04-15T15:26:55.759Z,12.92
2023-04-15T15:30:00.555Z,12.74
2023-04-15T15:33:02.312Z,12.56
2023-04-15T15:36:04.133Z,12.54
2023-04-15T15:39:07.369Z,12.50
2023-04-15T15:42:08.961Z,12.42
2023-04-15T15:45:12.254Z,12.39
2023-04-15T15:48:13.818Z,12.45
2023-04-15T15:51:15.345Z,12.51
2023-04-15T15:54:17.448Z,12.41
2023-04-15T15:57:18.968Z,12.36
2023-04-15T16:00:21.363Z,12.36
2023-04-15T16:03:23.557Z,12.45
2023-04-15T16:06:25.272Z,12.38
2023-04-15T16:09:28.367Z,12.36
2023-04-15T16:12:29.895Z,12.37
2023-04-15T16:15:31.443Z,12.30
2023-04-15T16:18:34.690Z,12.41
2023-04-15T16:21:36.872Z,12.36
2023-04-15T16:24:38.428Z,12.31
2023-04-15T16:27:57.279Z,12.41
2023-04-15T16:31:00.775Z,12.34
2023-04-15T16:34:02.970Z,12.44
2023-04-15T16:37:04.569Z,12.41
2023-04-15T16:40:07.358Z,12.38
2023-04-15T16:43:11.562Z,12.31
2023-04-15T16:46:13.230Z,12.39
2023-04-15T16:49:16.113Z,12.34
2023-04-15T16:52:17.656Z,12.40
2023-04-15T16:55:19.250Z,12.42
2023-04-15T16:58:20.972Z,12.23
2023-04-15T17:01:22.563Z,12.01
2023-04-15T17:04:24.489Z,11.96
2023-04-15T17:07:26.291Z,11.91
2023-04-15T17:10:28.186Z,11.84
2023-04-15T17:13:29.872Z,11.82
2023-04-15T17:16:31.415Z,11.99
2023-04-15T17:19:34.862Z,11.84
2023-04-15T17:22:38.763Z,11.80
2023-04-15T17:25:40.300Z,11.66
2023-04-15T17:28:41.937Z,11.66
2023-04-15T17:31:43.529Z,11.70
2023-04-15T17:34:50.544Z,11.77
2023-04-15T17:37:52.774Z,11.46
2023-04-15T17:40:54.978Z,11.49
2023-04-15T17:43:56.437Z,11.48
2023-04-15T17:46:58.062Z,11.32
2023-04-15T17:49:59.769Z,11.34
2023-04-15T17:53:01.564Z,11.30
2023-04-15T17:56:05.071Z,11.27
2023-04-15T17:59:09.824Z,11.23
2023-04-15T18:02:11.944Z,11.13
2023-04-15T18:05:14.670Z,11.11
2023-04-15T18:08:18.411Z,10.98
2023-04-15T18:11:19.959Z,10.97
2023-04-15T18:14:33.511Z,10.99
2023-04-15T18:17:36.455Z,10.89
2023-04-15T18:20:38.051Z,10.86
2023-04-15T18:23:42.622Z,10.58
2023-04-15T18:26:44.688Z,10.44
2023-04-15T18:29:47.289Z,10.49
2023-04-15T18:32:49.062Z,10.38
2023-04-15T18:35:50.763Z,10.03
2023-04-15T18:38:52.366Z,10.21
2023-04-15T18:41:54.283Z,9.85
2023-04-15T18:44:55.870Z,9.82
2023-04-15T18:47:57.549Z,9.75
2023-04-15T18:50:59.124Z,9.46
2023-04-15T18:54:00.854Z,9.45
2023-04-15T18:57:03.979Z,9.41
2023-04-15T19:00:06.271Z,9.39
2023-04-15T19:03:08.007Z,9.36
2023-04-15T19:06:09.803Z,9.31
2023-04-15T19:09:13.911Z,9.15
2023-04-15T19:12:17.999Z,9.00
2023-04-15T19:15:19.617Z,8.66
2023-04-15T19:18:21.551Z,8.67
2023-04-15T19:21:23.059Z,8.62
2023-04-15T19:24:26.939Z,8.53
2023-04-15T19:27:28.590Z,8.48
2023-04-15T19:30:32.424Z,8.60
2023-04-15T19:33:34.115Z,8.31
2023-04-15T19:36:35.758Z,8.26
2023-04-15T19:39:37.350Z,8.18
2023-04-15T19:42:39.212Z,8.09
2023-04-15T19:45:41.384Z,8.10
2023-04-15T19:48:43.090Z,7.98
2023-04-15T19:51:44.790Z,7.99
2023-04-15T19:54:47.986Z,7.84
2023-04-15T19:57:53.117Z,7.77
2023-04-15T20:01:20.373Z,7.73
